createdAt,value
2023-07-18T00:02:09.268Z,6.03
2023-07-18T00:04:37.727Z,4.00
2023-07-18T00:07:07.106Z,11.98
2023-07-18T00:09:37.164Z,4.80
2023-07-18T00:12:07.176Z,4.03
2023-07-18T00:14:35.804Z,6.90
2023-07-18T00:17:04.151Z,8.93
2023-07-18T00:19:34.900Z,6.65
2023-07-18T00:22:03.354Z,5.90
2023-07-18T00:24:31.986Z,7.93
2023-07-18T00:27:02.434Z,7.88
2023-07-18T00:29:30.976Z,8.27
2023-07-18T00:31:59.171Z,7.53
2023-07-18T00:34:27.456Z,4.65
2023-07-18T00:36:57.205Z,7.85
2023-07-18T00:42:11.341Z,14.07
2023-07-18T00:44:39.585Z,8.25
2023-07-18T00:47:09.929Z,9.68
2023-07-18T00:49:38.352Z,7.57
2023-07-18T00:52:09.023Z,10.68
2023-07-18T00:54:38.236Z,12.40
2023-07-18T00:57:10.263Z,10.32
2023-07-18T00:59:40.245Z,7.38
2023-07-18T01:02:09.260Z,5.78
2023-07-18T01:04:38.923Z,8.60
2023-07-18T01:07:09.351Z,10.77
2023-07-18T01:09:37.352Z,12.18
2023-07-18T01:12:06.211Z,7.30
2023-07-18T01:14:34.408Z,11.90
2023-07-18T01:17:04.230Z,15.00
2023-07-18T01:19:33.207Z,10.35
2023-07-18T01:22:03.857Z,11.57
2023-07-18T01:24:33.273Z,10.38
2023-07-18T01:27:01.111Z,6.68
2023-07-18T01:29:29.096Z,9.13
2023-07-18T01:31:57.465Z,8.85
2023-07-18T01:34:25.871Z,14.00
2023-07-18T01:36:54.012Z,14.88
2023-07-18T01:39:23.741Z,9.27
2023-07-18T01:41:51.884Z,8.77
2023-07-18T01:44:21.047Z,8.88
2023-07-18T01:46:50.975Z,9.18
2023-07-18T01:49:19.067Z,14.45
2023-07-18T01:51:47.298Z,8.43
2023-07-18T01:54:15.287Z,12.00
2023-07-18T01:56:44.618Z,8.73
2023-07-18T01:59:12.726Z,10.15
2023-07-18T02:01:41.716Z,12.57
2023-07-18T02:04:09.977Z,19.02
2023-07-18T02:06:37.851Z,11.68
2023-07-18T02:09:06.575Z,10.73
2023-07-18T02:11:35.264Z,9.40
2023-07-18T02:14:04.929Z,10.55
2023-07-18T02:16:33.607Z,8.73
2023-07-18T02:19:03.116Z,10.38
2023-07-18T02:21:33.933Z,8.40
2023-07-18T02:24:02.026Z,8.90
2023-07-18T02:26:30.821Z,14.35
2023-07-18T02:28:58.972Z,8.02
2023-07-18T02:31:28.397Z,13.20
2023-07-18T02:33:59.036Z,7.80
2023-07-18T02:36:27.176Z,10.32
2023-07-18T02:38:55.349Z,10.68
2023-07-18T02:41:23.536Z,10.98
2023-07-18T02:43:51.784Z,8.30
2023-07-18T02:46:19.813Z,8.48
2023-07-18T02:48:49.300Z,8.13
2023-07-18T02:51:21.759Z,10.05
2023-07-18T02:53:51.528Z,9.80
2023-07-18T02:56:20.289Z,9.43
2023-07-18T02:58:48.918Z,9.43
2023-07-18T03:01:20.139Z,9.43
2023-07-18T03:03:50.341Z,8.00
2023-07-18T03:06:20.066Z,8.02
2023-07-18T03:08:48.354Z,9.63
2023-07-18T03:11:17.380Z,9.88
2023-07-18T03:13:46.008Z,10.43
2023-07-18T03:16:15.293Z,13.15
2023-07-18T03:18:43.979Z,7.47
2023-07-18T03:21:13.563Z,9.48
2023-07-18T03:23:41.846Z,9.40
2023-07-18T03:26:10.192Z,6.70
2023-07-18T03:28:38.256Z,10.10
2023-07-18T03:31:08.260Z,9.73
2023-07-18T03:33:37.794Z,10.77
2023-07-18T03:36:06.677Z,10.68
2023-07-18T03:38:36.701Z,8.63
2023-07-18T03:41:05.230Z,8.13
2023-07-18T03:43:33.796Z,10.98
2023-07-18T03:46:01.747Z,9.95
2023-07-18T03:48:29.879Z,9.60
2023-07-18T03:50:58.922Z,8.05
2023-07-18T03:53:27.593Z,10.32
2023-07-18T03:56:04.053Z,9.80
2023-07-18T03:58:32.313Z,9.00
2023-07-18T04:01:00.280Z,12.65
2023-07-18T04:03:28.547Z,9.18
2023-07-18T04:05:56.924Z,13.38
2023-07-18T04:08:25.492Z,8.75
2023-07-18T04:10:53.369Z,11.43
2023-07-18T04:13:23.290Z,12.50
2023-07-18T04:15:51.253Z,11.60
2023-07-18T04:18:20.191Z,11.93
2023-07-18T04:20:50.271Z,11.30
2023-07-18T04:23:19.567Z,14.50
2023-07-18T04:25:59.101Z,12.40
2023-07-18T04:28:30.452Z,11.93
2023-07-18T04:30:58.695Z,9.25
2023-07-18T04:33:27.104Z,12.57
2023-07-18T04:35:55.410Z,13.85
2023-07-18T04:38:23.585Z,11.02
2023-07-18T04:40:51.993Z,13.27
2023-07-18T04:43:20.462Z,9.18
2023-07-18T04:45:50.485Z,9.50
2023-07-18T04:48:20.601Z,14.80
2023-07-18T04:50:51.552Z,15.10
2023-07-18T04:53:20.051Z,13.23
2023-07-18T04:55:52.339Z,14.27
2023-07-18T04:58:21.167Z,8.20
2023-07-18T05:00:50.719Z,11.25
2023-07-18T05:03:18.832Z,10.50
2023-07-18T05:05:47.164Z,9.60
2023-07-18T05:08:18.481Z,13.15
2023-07-18T05:10:46.843Z,12.13
2023-07-18T05:13:17.111Z,18.45
2023-07-18T05:15:47.719Z,12.27
2023-07-18T05:18:17.933Z,11.45
2023-07-18T05:20:46.114Z,10.32
2023-07-18T05:23:14.314Z,11.88
2023-07-18T05:25:42.509Z,10.50
2023-07-18T05:28:10.686Z,11.82
2023-07-18T05:30:38.720Z,9.73
2023-07-18T05:33:06.968Z,10.48
2023-07-18T05:35:38.356Z,10.35
2023-07-18T05:38:06.685Z,9.07
2023-07-18T05:40:35.935Z,10.13
2023-07-18T05:43:04.239Z,9.07
2023-07-18T05:45:32.589Z,12.07
2023-07-18T05:48:01.385Z,8.25
2023-07-18T05:50:29.636Z,11.43
2023-07-18T05:52:59.278Z,9.15
2023-07-18T05:55:28.834Z,9.40
2023-07-18T05:57:57.558Z,8.82
2023-07-18T06:00:26.863Z,10.23
2023-07-18T06:02:58.359Z,5.75
2023-07-18T06:05:27.374Z,8.13
2023-07-18T06:07:55.274Z,10.00
2023-07-18T06:10:24.789Z,9.45
2023-07-18T06:12:52.792Z,13.35
2023-07-18T06:15:21.639Z,12.52
2023-07-18T06:17:50.316Z,9.38
2023-07-18T06:20:22.326Z,9.07
2023-07-18T06:22:50.791Z,6.72
2023-07-18T06:25:20.007Z,15.32
2023-07-18T06:27:49.658Z,8.02
2023-07-18T06:30:18.197Z,6.57
2023-07-18T06:32:46.511Z,9.32
2023-07-18T06:35:23.835Z,6.60
2023-07-18T06:37:52.598Z,8.05
2023-07-18T06:40:20.912Z,12.43
2023-07-18T06:42:51.461Z,8.30
2023-07-18T06:45:19.945Z,7.80
2023-07-18T06:47:48.385Z,10.20
2023-07-18T06:50:16.534Z,9.07
2023-07-18T06:52:45.154Z,8.25
2023-07-18T06:55:13.787Z,14.30
2023-07-18T06:57:44.640Z,7.15
2023-07-18T07:00:16.096Z,8.30
2023-07-18T07:02:45.504Z,11.00
2023-07-18T07:05:14.329Z,9.23
2023-07-18T07:07:42.970Z,7.55
2023-07-18T07:10:11.246Z,8.10
2023-07-18T07:12:39.663Z,7.50
2023-07-18T07:15:08.805Z,5.10
2023-07-18T07:17:38.840Z,5.45
2023-07-18T07:20:08.414Z,6.90
2023-07-18T07:22:38.646Z,9.23
2023-07-18T07:25:07.912Z,6.65
2023-07-18T07:27:36.013Z,9.82
2023-07-18T07:30:04.065Z,8.95
2023-07-18T07:32:32.688Z,8.85
2023-07-18T07:35:02.144Z,7.93
2023-07-18T07:37:30.478Z,6.63
2023-07-18T07:39:58.648Z,9.60
2023-07-18T07:42:26.636Z,6.03
2023-07-18T07:44:55.160Z,8.38
2023-07-18T07:47:23.351Z,11.32
2023-07-18T07:49:51.605Z,7.93
2023-07-18T07:52:23.636Z,7.43
2023-07-18T07:54:51.904Z,5.20
2023-07-18T07:57:20.154Z,9.00
2023-07-18T07:59:49.223Z,6.63
2023-07-18T08:02:17.519Z,6.60
2023-07-18T08:04:46.751Z,5.43
2023-07-18T08:07:16.141Z,6.50
2023-07-18T08:09:47.205Z,4.85
2023-07-18T08:12:17.444Z,4.10
2023-07-18T08:14:45.882Z,6.63
2023-07-18T08:17:13.855Z,6.50
2023-07-18T08:19:41.981Z,6.47
2023-07-18T08:22:10.757Z,7.05
2023-07-18T08:24:39.102Z,6.03
2023-07-18T08:27:09.247Z,6.35
2023-07-18T08:29:37.368Z,6.38
2023-07-18T08:32:06.344Z,6.25
2023-07-18T08:34:35.996Z,8.73
2023-07-18T08:37:06.648Z,6.88
2023-07-18T08:39:35.040Z,3.53
2023-07-18T08:42:08.713Z,5.85
2023-07-18T08:44:37.676Z,4.55
2023-07-18T08:47:07.984Z,6.68
2023-07-18T08:49:37.685Z,9.52
2023-07-18T08:52:07.691Z,6.45
2023-07-18T08:54:36.618Z,5.88
2023-07-18T08:57:04.969Z,5.22
2023-07-18T08:59:34.648Z,4.47
2023-07-18T09:02:02.826Z,5.15
2023-07-18T09:04:33.440Z,4.88
2023-07-18T09:07:04.015Z,4.68
2023-07-18T09:09:31.978Z,6.25
2023-07-18T09:12:04.771Z,10.45
2023-07-18T09:14:38.331Z,8.60
2023-07-18T09:19:42.961Z,6.47
2023-07-18T09:22:12.915Z,5.40
2023-07-18T09:24:43.680Z,9.27
2023-07-18T09:27:17.686Z,5.95
2023-07-18T09:29:48.567Z,5.00
2023-07-18T09:32:20.114Z,7.60
2023-07-18T09:34:55.075Z,4.50
2023-07-18T09:37:24.491Z,5.60
2023-07-18T09:39:53.682Z,3.35
2023-07-18T09:42:23.963Z,6.63
2023-07-18T09:47:32.629Z,6.25
2023-07-18T09:50:03.535Z,2.90
2023-07-18T09:52:36.950Z,6.65
2023-07-18T09:55:08.153Z,6.07
2023-07-18T09:57:38.634Z,6.60
2023-07-18T10:00:12.953Z,5.68
2023-07-18T10:02:42.449Z,3.67
2023-07-18T10:05:12.198Z,5.63
2023-07-18T10:07:41.731Z,6.10
2023-07-18T10:10:11.960Z,6.72
2023-07-18T10:12:59.099Z,11.43
2023-07-18T10:15:30.031Z,5.43
2023-07-18T10:18:18.761Z,5.90
2023-07-18T10:21:00.403Z,6.38
2023-07-18T10:23:43.320Z,5.45
2023-07-18T10:26:11.569Z,6.40
2023-07-18T10:28:47.313Z,7.35
2023-07-18T10:31:35.912Z,6.95
2023-07-18T10:34:12.184Z,4.32
2023-07-18T10:36:42.155Z,4.93
2023-07-18T10:39:14.006Z,4.90
2023-07-18T10:41:45.498Z,6.22
2023-07-18T10:44:15.840Z,4.55
2023-07-18T10:46:46.958Z,4.78
2023-07-18T10:49:15.108Z,3.42
2023-07-18T10:51:43.607Z,4.00
2023-07-18T10:54:12.935Z,4.32
2023-07-18T10:56:41.044Z,4.43
2023-07-18T10:59:09.102Z,3.90
2023-07-18T11:01:38.389Z,4.22
2023-07-18T11:04:11.206Z,4.85
2023-07-18T11:06:43.713Z,4.88
2023-07-18T11:11:41.893Z,8.95
2023-07-18T11:14:10.425Z,4.85
2023-07-18T11:16:39.085Z,6.03
2023-07-18T11:19:10.750Z,6.07
2023-07-18T11:21:39.714Z,6.88
2023-07-18T11:24:08.771Z,7.05
2023-07-18T11:26:36.988Z,4.70
2023-07-18T11:29:06.752Z,6.30
2023-07-18T11:31:42.800Z,4.57
2023-07-18T11:34:25.096Z,5.43
2023-07-18T11:36:56.491Z,3.53
2023-07-18T11:39:25.728Z,5.50
2023-07-18T11:42:06.904Z,5.68
2023-07-18T11:44:35.110Z,4.43
2023-07-18T11:47:03.236Z,3.50
2023-07-18T11:49:37.305Z,4.15
2023-07-18T11:52:07.250Z,4.53
2023-07-18T11:54:36.542Z,3.90
2023-07-18T11:57:05.887Z,5.78
2023-07-18T11:59:34.359Z,5.07
2023-07-18T12:02:04.283Z,9.13
2023-07-18T12:04:32.679Z,4.63
2023-07-18T12:07:02.210Z,4.22
2023-07-18T12:09:30.372Z,5.65
2023-07-18T12:11:58.395Z,5.53
2023-07-18T12:14:26.572Z,4.40
2023-07-18T12:16:55.160Z,3.30
2023-07-18T12:19:24.513Z,7.45
2023-07-18T12:21:52.671Z,6.40
2023-07-18T12:24:22.423Z,5.70
2023-07-18T12:26:50.374Z,7.82
2023-07-18T12:29:19.795Z,10.38
2023-07-18T12:31:52.912Z,7.57
2023-07-18T12:34:21.913Z,5.50
2023-07-18T12:36:50.584Z,6.30
2023-07-18T12:39:19.477Z,3.60
2023-07-18T12:41:49.062Z,6.93
2023-07-18T12:44:19.737Z,4.45
2023-07-18T12:46:47.936Z,4.50
2023-07-18T12:52:05.301Z,4.63
2023-07-18T12:54:33.980Z,6.20
2023-07-18T12:57:03.741Z,6.78
2023-07-18T12:59:32.411Z,4.78
2023-07-18T13:02:01.134Z,3.83
2023-07-18T13:04:29.954Z,4.38
2023-07-18T13:06:58.341Z,6.40
2023-07-18T13:09:26.606Z,10.60
2023-07-18T13:12:02.314Z,8.07
2023-07-18T13:14:31.605Z,6.50
2023-07-18T13:16:59.752Z,8.02
2023-07-18T13:19:28.192Z,4.80
2023-07-18T13:22:01.260Z,5.05
2023-07-18T13:24:29.714Z,7.13
2023-07-18T13:26:58.084Z,3.67
2023-07-18T13:29:26.179Z,5.65
2023-07-18T13:31:56.064Z,4.82
2023-07-18T13:34:24.193Z,4.93
2023-07-18T13:36:52.389Z,6.70
2023-07-18T13:39:20.408Z,4.57
2023-07-18T13:41:49.140Z,4.90
2023-07-18T13:44:17.572Z,4.47
2023-07-18T13:46:46.114Z,10.23
2023-07-18T13:49:15.881Z,4.55
2023-07-18T13:51:45.660Z,7.53
2023-07-18T13:54:13.971Z,6.20
2023-07-18T13:56:42.254Z,4.10
2023-07-18T13:59:10.666Z,5.70
2023-07-18T14:01:41.458Z,6.07
2023-07-18T14:04:12.718Z,5.53
2023-07-18T14:06:42.728Z,4.33
2023-07-18T14:09:11.014Z,7.03
2023-07-18T14:11:39.077Z,5.55
2023-07-18T14:14:07.424Z,4.90
2023-07-18T14:16:36.216Z,4.50
2023-07-18T14:19:04.553Z,6.93
2023-07-18T14:21:33.034Z,4.68
2023-07-18T14:24:06.230Z,4.60
2023-07-18T14:26:34.590Z,4.45
2023-07-18T14:29:02.657Z,4.07
2023-07-18T14:31:31.009Z,3.63
2023-07-18T14:34:06.797Z,3.95
2023-07-18T14:36:37.229Z,4.20
2023-07-18T14:39:07.403Z,4.70
2023-07-18T14:41:35.800Z,6.80
2023-07-18T14:44:04.021Z,4.05
2023-07-18T14:46:35.218Z,5.07
2023-07-18T14:49:04.010Z,6.53
2023-07-18T14:51:33.629Z,5.18
2023-07-18T14:54:01.758Z,6.70
2023-07-18T14:56:32.829Z,4.63
2023-07-18T14:59:00.758Z,6.53
2023-07-18T15:01:30.014Z,3.90
2023-07-18T15:03:58.426Z,3.97
2023-07-18T15:06:26.942Z,5.50
2023-07-18T15:08:56.253Z,3.72
2023-07-18T15:11:24.911Z,4.20
2023-07-18T15:13:54.415Z,4.10
2023-07-18T15:16:23.450Z,4.93
2023-07-18T15:18:53.349Z,4.72
2023-07-18T15:21:21.376Z,4.97
2023-07-18T15:23:49.379Z,6.68
2023-07-18T15:26:17.812Z,5.45
2023-07-18T15:28:46.370Z,3.97
2023-07-18T15:31:16.569Z,4.82
2023-07-18T15:33:46.307Z,5.38
2023-07-18T15:36:14.589Z,3.63
2023-07-18T15:38:46.374Z,3.90
2023-07-18T15:41:15.145Z,6.70
2023-07-18T15:43:43.935Z,3.65
2023-07-18T15:46:12.853Z,4.85
2023-07-18T15:48:45.292Z,5.63
2023-07-18T15:51:13.642Z,4.70
2023-07-18T15:53:41.753Z,3.72
2023-07-18T15:56:15.673Z,4.15
2023-07-18T15:58:43.987Z,3.67
2023-07-18T16:01:12.255Z,4.53
2023-07-18T16:03:42.218Z,5.18
2023-07-18T16:06:10.472Z,6.43
2023-07-18T16:08:38.757Z,4.80
2023-07-18T16:11:07.081Z,3.90
2023-07-18T16:13:36.387Z,5.00
2023-07-18T16:16:05.367Z,4.07
2023-07-18T16:18:33.506Z,5.35
2023-07-18T16:21:03.178Z,4.30
2023-07-18T16:23:31.168Z,3.55
2023-07-18T16:25:59.103Z,4.15
2023-07-18T16:28:27.423Z,4.80
2023-07-18T16:30:57.561Z,4.50
2023-07-18T16:33:25.760Z,3.72
2023-07-18T16:35:53.964Z,6.45
2023-07-18T16:38:24.436Z,6.78
2023-07-18T16:40:52.433Z,5.40
2023-07-18T16:43:21.223Z,4.10
2023-07-18T16:45:51.802Z,4.75
2023-07-18T16:48:20.311Z,4.57
2023-07-18T16:50:49.311Z,6.78
2023-07-18T16:53:17.392Z,3.42
2023-07-18T16:55:46.867Z,4.03
2023-07-18T16:58:16.338Z,6.32
2023-07-18T17:00:45.078Z,4.97
2023-07-18T17:03:13.277Z,7.15
2023-07-18T17:05:43.969Z,6.00
2023-07-18T17:08:12.171Z,6.20
2023-07-18T17:10:43.792Z,5.53
2023-07-18T17:13:13.385Z,5.35
2023-07-18T17:15:41.688Z,4.15
2023-07-18T17:18:10.531Z,5.82
2023-07-18T17:20:39.221Z,4.85
2023-07-18T17:23:07.851Z,6.60
2023-07-18T17:25:36.382Z,11.70
2023-07-18T17:28:04.532Z,4.75
2023-07-18T17:30:36.843Z,6.60
2023-07-18T17:33:05.662Z,6.72
2023-07-18T17:35:34.912Z,6.35
2023-07-18T17:38:04.121Z,6.10
2023-07-18T17:40:32.174Z,7.25
2023-07-18T17:43:03.222Z,4.57
2023-07-18T17:45:35.202Z,5.53
2023-07-18T17:48:03.965Z,3.75
2023-07-18T17:50:32.096Z,4.53
2023-07-18T17:53:00.089Z,6.30
2023-07-18T17:55:28.788Z,6.15
2023-07-18T17:57:58.094Z,4.70
2023-07-18T18:00:26.595Z,8.52
2023-07-18T18:02:56.818Z,7.30
2023-07-18T18:05:36.458Z,7.55
2023-07-18T18:08:06.261Z,6.43
2023-07-18T18:10:34.787Z,8.50
2023-07-18T18:13:03.069Z,5.68
2023-07-18T18:15:31.642Z,7.53
2023-07-18T18:18:02.253Z,6.15
2023-07-18T18:20:30.777Z,5.32
2023-07-18T18:22:59.129Z,4.13
2023-07-18T18:25:28.162Z,7.03
2023-07-18T18:27:56.762Z,4.70
2023-07-18T18:30:26.005Z,6.97
2023-07-18T18:32:54.710Z,5.90
2023-07-18T18:35:24.194Z,9.63
2023-07-18T18:37:52.236Z,6.53
2023-07-18T18:40:20.681Z,5.28
2023-07-18T18:42:51.007Z,5.80
2023-07-18T18:45:19.445Z,5.43
2023-07-18T18:47:49.876Z,5.65
2023-07-18T18:50:19.959Z,6.18
2023-07-18T18:52:50.225Z,5.20
2023-07-18T18:55:20.697Z,6.78
2023-07-18T18:57:49.748Z,6.85
2023-07-18T19:00:19.156Z,6.35
2023-07-18T19:02:47.465Z,5.53
2023-07-18T19:05:17.898Z,6.30
2023-07-18T19:07:46.607Z,5.43
2023-07-18T19:10:16.567Z,5.90
2023-07-18T19:12:47.094Z,7.93
2023-07-18T19:15:15.358Z,5.95
2023-07-18T19:17:43.444Z,5.75
2023-07-18T19:20:12.738Z,5.00
2023-07-18T19:22:41.118Z,7.55
2023-07-18T19:25:09.905Z,6.80
2023-07-18T19:27:39.980Z,7.82
2023-07-18T19:30:11.262Z,7.28
2023-07-18T19:32:42.014Z,6.28
2023-07-18T19:35:10.351Z,6.57
2023-07-18T19:37:38.550Z,7.30
2023-07-18T19:40:08.034Z,7.35
2023-07-18T19:42:35.942Z,11.90
2023-07-18T19:45:05.685Z,7.50
2023-07-18T19:47:34.213Z,8.60
2023-07-18T19:50:03.452Z,5.70
2023-07-18T19:52:31.632Z,12.18
2023-07-18T19:55:00.129Z,5.80
2023-07-18T19:57:28.460Z,8.20
2023-07-18T19:59:56.738Z,9.25
2023-07-18T20:02:26.504Z,8.00
2023-07-18T20:04:54.545Z,6.65
2023-07-18T20:07:22.536Z,9.70
2023-07-18T20:09:50.956Z,7.47
2023-07-18T20:12:20.309Z,11.25
2023-07-18T20:14:48.552Z,7.43
2023-07-18T20:17:16.853Z,7.90
2023-07-18T20:19:46.536Z,6.13
2023-07-18T20:22:15.814Z,8.80
2023-07-18T20:24:44.143Z,11.43
2023-07-18T20:27:12.116Z,10.43
2023-07-18T20:29:40.688Z,9.88
2023-07-18T20:32:08.901Z,7.68
2023-07-18T20:34:37.636Z,9.55
2023-07-18T20:37:07.987Z,7.28
2023-07-18T20:39:36.332Z,7.25
2023-07-18T20:42:06.887Z,7.05
2023-07-18T20:44:35.261Z,9.40
2023-07-18T20:47:05.046Z,9.63
2023-07-18T20:49:33.120Z,8.82
2023-07-18T20:52:01.380Z,8.38
2023-07-18T20:54:33.668Z,6.13
2023-07-18T20:57:04.323Z,10.30
2023-07-18T20:59:34.019Z,10.57
2023-07-18T21:02:02.385Z,8.10
2023-07-18T21:04:30.664Z,8.23
2023-07-18T21:06:58.902Z,6.18
2023-07-18T21:09:27.006Z,8.32
2023-07-18T21:11:56.341Z,11.15
2023-07-18T21:14:25.330Z,10.43
2023-07-18T21:16:53.863Z,9.43
2023-07-18T21:19:22.031Z,7.55
2023-07-18T21:21:50.489Z,10.25
2023-07-18T21:24:19.463Z,8.13
2023-07-18T21:26:47.865Z,7.13
2023-07-18T21:29:20.143Z,8.65
2023-07-18T21:31:48.541Z,7.38
2023-07-18T21:34:16.612Z,8.98
2023-07-18T21:36:44.633Z,9.23
2023-07-18T21:39:12.619Z,12.65
2023-07-18T21:41:40.824Z,10.00
2023-07-18T21:44:09.271Z,6.85
2023-07-18T21:46:39.046Z,10.15
2023-07-18T21:49:07.558Z,7.28
2023-07-18T21:51:35.510Z,8.38
2023-07-18T21:54:03.621Z,9.60
2023-07-18T21:56:32.726Z,11.18
2023-07-18T21:59:01.243Z,8.20
2023-07-18T22:01:34.838Z,7.65
2023-07-18T22:04:05.151Z,8.77
2023-07-18T22:06:33.588Z,9.35
2023-07-18T22:09:03.990Z,12.00
2023-07-18T22:11:33.726Z,8.50
2023-07-18T22:14:03.474Z,6.78
2023-07-18T22:16:32.037Z,11.80
2023-07-18T22:19:02.531Z,8.80
2023-07-18T22:21:32.529Z,6.78
2023-07-18T22:24:02.235Z,9.55
2023-07-18T22:26:30.727Z,6.85
2023-07-18T22:28:58.797Z,8.82
2023-07-18T22:31:27.033Z,9.82
2023-07-18T22:33:55.546Z,7.95
2023-07-18T22:36:23.996Z,8.32
2023-07-18T22:38:53.906Z,9.05
2023-07-18T22:41:22.278Z,9.35
2023-07-18T22:43:50.941Z,7.80
2023-07-18T22:46:19.174Z,8.95
2023-07-18T22:48:47.573Z,8.07
2023-07-18T22:51:15.949Z,9.52
2023-07-18T22:53:44.195Z,9.52
2023-07-18T22:56:15.467Z,12.98
2023-07-18T22:58:44.073Z,10.13
2023-07-18T23:01:12.380Z,8.10
2023-07-18T23:03:40.811Z,11.60
2023-07-18T23:06:09.215Z,7.65
2023-07-18T23:08:37.717Z,10.60
2023-07-18T23:11:06.113Z,8.88
2023-07-18T23:13:35.470Z,8.20
2023-07-18T23:16:03.421Z,9.73
2023-07-18T23:18:31.531Z,9.95
2023-07-18T23:21:00.029Z,9.57
2023-07-18T23:23:28.269Z,10.48
2023-07-18T23:25:56.490Z,7.80
2023-07-18T23:28:26.149Z,11.18
2023-07-18T23:30:56.075Z,11.30
2023-07-18T23:33:24.214Z,14.90
2023-07-18T23:35:52.483Z,13.48
2023-07-18T23:38:21.031Z,9.35
2023-07-18T23:40:49.554Z,10.30
2023-07-18T23:43:17.832Z,10.75
2023-07-18T23:45:46.000Z,7.03
2023-07-18T23:48:15.973Z,12.95
2023-07-18T23:50:44.234Z,10.55
2023-07-18T23:53:12.149Z,8.32
2023-07-18T23:55:43.976Z,11.15
2023-07-18T23:58:12.413Z,11.10
